createdAt,value
2022-11-14T00:00:23.091Z,3
2022-11-14T00:01:23.070Z,4
2022-11-14T00:02:23.146Z,3
2022-11-14T00:03:23.177Z,3
2022-11-14T00:04:25.509Z,3
2022-11-14T00:05:23.111Z,3
2022-11-14T00:06:23.069Z,3
2022-11-14T00:07:23.234Z,3
2022-11-14T00:08:23.085Z,3
2022-11-14T00:09:23.062Z,3
2022-11-14T00:10:23.114Z,3
2022-11-14T00:11:23.108Z,4
2022-11-14T00:12:23.082Z,3
2022-11-14T00:13:23.069Z,4
2022-11-14T00:14:23.066Z,4
2022-11-14T00:15:23.077Z,3
2022-11-14T00:16:23.069Z,3
2022-11-14T00:17:23.059Z,3
2022-11-14T00:18:23.196Z,4
2022-11-14T00:19:23.127Z,4
2022-11-14T00:20:23.069Z,4
2022-11-14T00:21:23.126Z,3
2022-11-14T00:22:23.059Z,4
2022-11-14T00:23:23.077Z,4
2022-11-14T00:24:23.058Z,4
2022-11-14T00:25:23.078Z,4
2022-11-14T00:26:23.124Z,4
2022-11-14T00:27:23.254Z,4
2022-11-14T00:28:23.072Z,4
2022-11-14T00:29:23.068Z,4
2022-11-14T00:30:23.054Z,4
2022-11-14T00:31:23.082Z,4
2022-11-14T00:32:23.087Z,4
2022-11-14T00:33:23.096Z,4
2022-11-14T00:34:23.131Z,4
2022-11-14T00:35:23.105Z,4
2022-11-14T00:36:23.088Z,4
2022-11-14T00:37:23.070Z,4
2022-11-14T00:38:23.068Z,4
2022-11-14T00:39:23.064Z,4
2022-11-14T00:40:23.071Z,4
2022-11-14T00:41:23.081Z,4
2022-11-14T00:42:23.114Z,4
2022-11-14T00:43:23.072Z,4
2022-11-14T00:44:23.052Z,4
2022-11-14T00:45:23.079Z,4
2022-11-14T00:46:23.086Z,5
2022-11-14T00:47:23.062Z,5
2022-11-14T00:48:23.094Z,4
2022-11-14T00:49:23.110Z,4
2022-11-14T00:50:23.109Z,4
2022-11-14T00:51:23.084Z,4
2022-11-14T00:52:23.070Z,4
2022-11-14T00:53:23.080Z,4
2022-11-14T00:54:23.059Z,4
2022-11-14T00:55:23.271Z,4
2022-11-14T00:56:23.083Z,4
2022-11-14T00:57:23.092Z,4
2022-11-14T00:58:23.243Z,4
2022-11-14T00:59:23.083Z,3
2022-11-14T01:00:23.110Z,4
2022-11-14T01:01:23.123Z,3
2022-11-14T01:02:23.069Z,3
2022-11-14T01:03:23.097Z,3
2022-11-14T01:04:23.063Z,3
2022-11-14T01:05:23.111Z,3
2022-11-14T01:06:23.126Z,4
2022-11-14T01:07:23.091Z,3
2022-11-14T01:08:23.071Z,3
2022-11-14T01:09:23.158Z,3
2022-11-14T01:10:23.066Z,3
2022-11-14T01:11:23.123Z,4
2022-11-14T01:12:23.077Z,4
2022-11-14T01:13:23.120Z,3
2022-11-14T01:14:23.102Z,3
2022-11-14T01:15:23.082Z,4
2022-11-14T01:16:23.097Z,3
2022-11-14T01:17:23.063Z,4
2022-11-14T01:18:23.103Z,3
2022-11-14T01:19:23.065Z,4
2022-11-14T01:20:23.073Z,3
2022-11-14T01:21:23.145Z,4
2022-11-14T01:22:23.110Z,4
2022-11-14T01:23:23.073Z,3
2022-11-14T01:24:23.077Z,3
2022-11-14T01:25:23.084Z,4
2022-11-14T01:26:23.089Z,4
2022-11-14T01:27:23.071Z,3
2022-11-14T01:28:23.057Z,3
2022-11-14T01:29:23.258Z,4
2022-11-14T01:30:23.106Z,3
2022-11-14T01:31:23.099Z,4
2022-11-14T01:32:23.068Z,4
2022-11-14T01:33:23.283Z,4
2022-11-14T01:34:23.067Z,3
2022-11-14T01:35:23.061Z,3
2022-11-14T01:36:23.155Z,4
2022-11-14T01:37:23.108Z,4
2022-11-14T01:38:23.065Z,3
2022-11-14T01:39:23.066Z,3
2022-11-14T01:40:23.069Z,3
2022-11-14T01:41:23.084Z,4
2022-11-14T01:42:26.995Z,3
2022-11-14T01:43:23.069Z,3
2022-11-14T01:44:23.295Z,3
2022-11-14T01:45:23.116Z,3
2022-11-14T01:46:23.088Z,3
2022-11-14T01:47:23.242Z,3
2022-11-14T01:48:23.082Z,3
2022-11-14T01:49:23.130Z,3
2022-11-14T01:50:23.103Z,3
2022-11-14T01:51:23.093Z,4
2022-11-14T01:52:23.133Z,4
2022-11-14T01:53:23.106Z,4
2022-11-14T01:54:23.407Z,4
2022-11-14T01:55:23.073Z,4
2022-11-14T01:56:23.104Z,4
2022-11-14T01:57:23.086Z,4
2022-11-14T01:58:23.113Z,4
2022-11-14T01:59:23.073Z,4
2022-11-14T02:00:23.234Z,4
2022-11-14T02:01:23.283Z,4
2022-11-14T02:02:23.071Z,4
2022-11-14T02:03:23.106Z,4
2022-11-14T02:04:23.449Z,3
2022-11-14T02:05:23.079Z,4
2022-11-14T02:06:23.137Z,4
2022-11-14T02:07:23.131Z,4
2022-11-14T02:08:23.115Z,4
2022-11-14T02:09:23.136Z,3
2022-11-14T02:10:23.074Z,4
2022-11-14T02:11:23.105Z,4
2022-11-14T02:12:23.076Z,4
2022-11-14T02:13:23.093Z,4
2022-11-14T02:14:23.060Z,4
2022-11-14T02:15:23.071Z,4
2022-11-14T02:16:23.139Z,4
2022-11-14T02:17:29.422Z,3
2022-11-14T02:18:23.078Z,3
2022-11-14T02:19:23.071Z,3
2022-11-14T02:20:23.097Z,4
2022-11-14T02:21:23.090Z,3
2022-11-14T02:22:23.072Z,4
2022-11-14T02:23:23.128Z,3
2022-11-14T02:24:23.139Z,3
2022-11-14T02:25:23.062Z,4
2022-11-14T02:26:23.092Z,4
2022-11-14T02:27:23.068Z,3
2022-11-14T02:28:23.076Z,4
2022-11-14T02:29:23.076Z,4
2022-11-14T02:30:23.076Z,4
2022-11-14T02:31:23.264Z,4
2022-11-14T02:32:23.108Z,4
2022-11-14T02:33:23.095Z,4
2022-11-14T02:34:23.081Z,4
2022-11-14T02:35:23.078Z,4
2022-11-14T02:36:23.094Z,3
2022-11-14T02:37:23.118Z,4
2022-11-14T02:38:23.072Z,4
2022-11-14T02:39:23.129Z,4
2022-11-14T02:40:23.119Z,4
2022-11-14T02:41:23.072Z,4
2022-11-14T02:42:23.082Z,4
2022-11-14T02:43:23.150Z,4
2022-11-14T02:44:23.266Z,4
2022-11-14T02:45:23.234Z,4
2022-11-14T02:46:23.183Z,5
2022-11-14T02:47:23.256Z,5
2022-11-14T02:48:23.137Z,5
2022-11-14T02:49:23.326Z,5
2022-11-14T02:50:23.359Z,5
2022-11-14T02:51:23.091Z,5
2022-11-14T02:52:23.074Z,5
2022-11-14T02:53:23.074Z,4
2022-11-14T02:54:23.066Z,4
2022-11-14T02:55:23.120Z,3
2022-11-14T02:56:23.091Z,4
2022-11-14T02:57:23.071Z,4
2022-11-14T02:58:23.071Z,4
2022-11-14T02:59:23.068Z,4
2022-11-14T03:00:23.069Z,4
2022-11-14T03:01:23.174Z,4
2022-11-14T03:02:23.208Z,4
2022-11-14T03:03:23.128Z,3
2022-11-14T03:04:23.057Z,4
2022-11-14T03:05:23.082Z,4
2022-11-14T03:06:23.092Z,3
2022-11-14T03:07:23.135Z,4
2022-11-14T03:08:23.065Z,4
2022-11-14T03:09:23.073Z,4
2022-11-14T03:10:23.116Z,3
2022-11-14T03:11:23.127Z,4
2022-11-14T03:12:23.076Z,3
2022-11-14T03:13:23.072Z,3
2022-11-14T03:14:23.071Z,4
2022-11-14T03:15:23.071Z,4
2022-11-14T03:16:23.107Z,4
2022-11-14T03:17:23.063Z,4
2022-11-14T03:18:23.137Z,4
2022-11-14T03:19:23.109Z,3
2022-11-14T03:20:23.067Z,3
2022-11-14T03:21:23.100Z,4
2022-11-14T03:22:23.081Z,4
2022-11-14T03:23:23.080Z,4
2022-11-14T03:24:23.085Z,4
2022-11-14T03:25:23.112Z,4
2022-11-14T03:26:23.127Z,4
2022-11-14T03:27:23.090Z,4
2022-11-14T03:28:23.072Z,4
2022-11-14T03:29:23.065Z,4
2022-11-14T03:30:23.100Z,4
2022-11-14T03:31:23.074Z,4
2022-11-14T03:32:23.091Z,4
2022-11-14T03:33:23.169Z,4
2022-11-14T03:34:23.120Z,4
2022-11-14T03:35:23.073Z,4
2022-11-14T03:36:23.084Z,4
2022-11-14T03:37:23.070Z,4
2022-11-14T03:38:23.113Z,4
2022-11-14T03:39:23.058Z,4
2022-11-14T03:40:23.099Z,4
2022-11-14T03:41:23.184Z,4
2022-11-14T03:42:23.106Z,4
2022-11-14T03:43:23.078Z,4
2022-11-14T03:44:23.080Z,4
2022-11-14T03:45:23.095Z,4
2022-11-14T03:46:23.093Z,4
2022-11-14T03:47:23.090Z,4
2022-11-14T03:48:23.093Z,4
2022-11-14T03:49:23.127Z,4
2022-11-14T03:50:23.122Z,4
2022-11-14T03:51:23.109Z,4
2022-11-14T03:52:23.136Z,4
2022-11-14T03:53:23.064Z,4
2022-11-14T03:54:23.067Z,4
2022-11-14T03:55:23.062Z,5
2022-11-14T03:56:23.089Z,4
2022-11-14T03:57:23.131Z,4
2022-11-14T03:58:23.119Z,4
2022-11-14T03:59:23.081Z,4
2022-11-14T04:00:23.075Z,4
2022-11-14T04:01:23.329Z,4
2022-11-14T04:02:23.358Z,4
2022-11-14T04:03:23.342Z,4
2022-11-14T04:04:23.349Z,4
2022-11-14T04:05:23.332Z,4
2022-11-14T04:06:23.436Z,5
2022-11-14T04:07:23.541Z,5
2022-11-14T04:08:23.449Z,5
2022-11-14T04:09:23.370Z,4
2022-11-14T04:10:23.067Z,4
2022-11-14T04:11:23.093Z,4
2022-11-14T04:12:23.079Z,4
2022-11-14T04:13:23.116Z,4
2022-11-14T04:14:23.063Z,4
2022-11-14T04:15:23.072Z,4
2022-11-14T04:16:23.104Z,4
2022-11-14T04:17:23.061Z,4
2022-11-14T04:18:23.109Z,5
2022-11-14T04:19:23.071Z,5
2022-11-14T04:20:23.042Z,4
2022-11-14T04:21:23.190Z,5
2022-11-14T04:22:23.070Z,4
2022-11-14T04:23:23.067Z,4
2022-11-14T04:24:23.070Z,4
2022-11-14T04:25:23.064Z,4
2022-11-14T04:26:23.108Z,5
2022-11-14T04:27:23.070Z,5
2022-11-14T04:28:23.100Z,4
2022-11-14T04:29:23.114Z,5
2022-11-14T04:30:23.070Z,5
2022-11-14T04:31:23.082Z,5
2022-11-14T04:32:23.071Z,5
2022-11-14T04:33:23.112Z,5
2022-11-14T04:34:23.035Z,5
2022-11-14T04:35:23.191Z,5
2022-11-14T04:36:23.137Z,5
2022-11-14T04:37:23.107Z,4
2022-11-14T04:38:23.067Z,5
2022-11-14T04:39:23.124Z,5
2022-11-14T04:40:23.065Z,5
2022-11-14T04:41:23.107Z,4
2022-11-14T04:42:23.067Z,5
2022-11-14T04:43:23.083Z,5
2022-11-14T04:44:23.108Z,5
2022-11-14T04:45:23.171Z,4
2022-11-14T04:46:23.097Z,5
2022-11-14T04:47:23.077Z,5
2022-11-14T04:48:23.093Z,4
2022-11-14T04:49:23.050Z,5
2022-11-14T04:50:23.147Z,4
2022-11-14T04:51:23.091Z,5
2022-11-14T04:52:23.120Z,5
2022-11-14T04:53:23.111Z,4
2022-11-14T04:54:23.077Z,5
2022-11-14T04:55:23.083Z,5
2022-11-14T04:56:23.095Z,5
2022-11-14T04:57:23.066Z,5
2022-11-14T04:58:23.070Z,5
2022-11-14T04:59:23.080Z,4
2022-11-14T05:00:23.104Z,5
2022-11-14T05:01:23.105Z,5
2022-11-14T05:02:23.075Z,5
2022-11-14T05:03:23.086Z,4
2022-11-14T05:04:23.103Z,5
2022-11-14T05:05:23.071Z,5
2022-11-14T05:06:23.112Z,6
2022-11-14T05:07:23.155Z,5
2022-11-14T05:08:23.099Z,5
2022-11-14T05:09:23.074Z,5
2022-11-14T05:10:23.045Z,4
2022-11-14T05:11:27.943Z,4
2022-11-14T05:12:23.073Z,5
2022-11-14T05:13:23.069Z,5
2022-11-14T05:14:23.059Z,5
2022-11-14T05:15:23.148Z,5
2022-11-14T05:16:23.139Z,5
2022-11-14T05:17:23.059Z,5
2022-11-14T05:18:23.087Z,5
2022-11-14T05:19:23.070Z,6
2022-11-14T05:20:23.068Z,6
2022-11-14T05:21:23.088Z,5
2022-11-14T05:22:23.071Z,6
2022-11-14T05:23:23.137Z,6
2022-11-14T05:24:23.119Z,6
2022-11-14T05:25:23.065Z,6
2022-11-14T05:26:23.142Z,6
2022-11-14T05:27:23.093Z,6
2022-11-14T05:28:23.069Z,6
2022-11-14T05:29:23.067Z,7
2022-11-14T05:30:23.054Z,6
2022-11-14T05:31:23.136Z,6
2022-11-14T05:32:23.121Z,7
2022-11-14T05:33:23.086Z,8
2022-11-14T05:34:23.057Z,8
2022-11-14T05:35:23.062Z,8
2022-11-14T05:36:23.084Z,7
2022-11-14T05:37:23.178Z,7
2022-11-14T05:38:23.058Z,7
2022-11-14T05:39:23.127Z,6
2022-11-14T05:40:23.140Z,6
2022-11-14T05:41:23.088Z,6
2022-11-14T05:42:23.073Z,6
2022-11-14T05:43:23.065Z,6
2022-11-14T05:44:23.067Z,6
2022-11-14T05:45:23.076Z,6
2022-11-14T05:46:23.095Z,6
2022-11-14T05:47:23.131Z,6
2022-11-14T05:48:23.161Z,6
2022-11-14T05:49:23.065Z,6
2022-11-14T05:50:23.062Z,6
2022-11-14T05:51:23.096Z,6
2022-11-14T05:52:23.038Z,7
2022-11-14T05:53:23.062Z,7
2022-11-14T05:54:23.093Z,6
2022-11-14T05:55:25.090Z,7
2022-11-14T05:56:23.059Z,7
2022-11-14T05:57:23.076Z,6
2022-11-14T05:58:23.084Z,7
2022-11-14T05:59:23.065Z,6
2022-11-14T06:00:23.071Z,6
2022-11-14T06:01:23.089Z,7
2022-11-14T06:02:23.246Z,6
2022-11-14T06:03:23.137Z,6
2022-11-14T06:04:23.041Z,6
2022-11-14T06:05:23.080Z,6
2022-11-14T06:06:23.085Z,6
2022-11-14T06:07:23.348Z,7
2022-11-14T06:08:23.405Z,7
2022-11-14T06:09:23.477Z,6
2022-11-14T06:10:23.105Z,7
2022-11-14T06:11:23.123Z,6
2022-11-14T06:12:23.069Z,6
2022-11-14T06:13:23.076Z,7
2022-11-14T06:14:23.046Z,7
2022-11-14T06:15:23.065Z,7
2022-11-14T06:16:23.132Z,7
2022-11-14T06:17:23.065Z,7
2022-11-14T06:18:23.151Z,7
2022-11-14T06:19:23.103Z,7
2022-11-14T06:20:23.097Z,8
2022-11-14T06:21:23.107Z,8
2022-11-14T06:22:23.070Z,8
2022-11-14T06:23:24.785Z,7
2022-11-14T06:24:23.081Z,7
2022-11-14T06:25:23.089Z,8
2022-11-14T06:26:23.127Z,8
2022-11-14T06:27:23.149Z,8
2022-11-14T06:28:23.065Z,8
2022-11-14T06:29:23.071Z,7
2022-11-14T06:30:23.073Z,8
2022-11-14T06:31:23.079Z,8
2022-11-14T06:32:23.042Z,7
2022-11-14T06:33:23.214Z,8
2022-11-14T06:34:23.090Z,8
2022-11-14T06:35:23.073Z,8
2022-11-14T06:36:23.098Z,9
2022-11-14T06:37:23.073Z,8
2022-11-14T06:38:23.149Z,7
2022-11-14T06:39:23.095Z,8
2022-11-14T06:40:23.064Z,8
2022-11-14T06:41:23.132Z,7
2022-11-14T06:42:23.083Z,8
2022-11-14T06:43:23.060Z,8
2022-11-14T06:44:26.441Z,8
2022-11-14T06:45:23.076Z,8
2022-11-14T06:46:23.050Z,8
2022-11-14T06:47:23.071Z,8
2022-11-14T06:48:23.079Z,8
2022-11-14T06:49:23.111Z,10
2022-11-14T06:50:23.122Z,9
2022-11-14T06:51:23.131Z,8
2022-11-14T06:52:23.098Z,9
2022-11-14T06:53:23.071Z,9
2022-11-14T06:54:23.060Z,9
2022-11-14T06:55:25.511Z,9
2022-11-14T06:56:23.060Z,9
2022-11-14T06:57:23.127Z,10
2022-11-14T06:58:23.126Z,9
2022-11-14T06:59:23.074Z,9
2022-11-14T07:00:23.068Z,10
2022-11-14T07:01:23.077Z,10
2022-11-14T07:02:23.044Z,10
2022-11-14T07:03:23.205Z,11
2022-11-14T07:04:23.060Z,10
2022-11-14T07:05:23.112Z,11
2022-11-14T07:06:23.110Z,10
2022-11-14T07:07:23.128Z,11
2022-11-14T07:08:23.045Z,11
2022-11-14T07:09:23.059Z,11
2022-11-14T07:10:23.064Z,11
2022-11-14T07:11:23.283Z,10
2022-11-14T07:12:23.043Z,12
2022-11-14T07:13:23.108Z,12
2022-11-14T07:14:23.048Z,11
2022-11-14T07:15:23.058Z,12
2022-11-14T07:16:23.088Z,12
2022-11-14T07:17:25.959Z,12
2022-11-14T07:18:23.082Z,12
2022-11-14T07:19:23.071Z,12
2022-11-14T07:20:23.148Z,13
2022-11-14T07:21:23.137Z,11
2022-11-14T07:22:23.050Z,12
2022-11-14T07:23:23.223Z,12
2022-11-14T07:24:23.066Z,12
2022-11-14T07:25:23.084Z,13
2022-11-14T07:26:23.050Z,12
2022-11-14T07:27:23.071Z,12
2022-11-14T07:28:23.158Z,11
2022-11-14T07:29:23.107Z,11
2022-11-14T07:30:23.049Z,12
2022-11-14T07:31:23.119Z,12
2022-11-14T07:32:23.043Z,11
2022-11-14T07:33:23.078Z,11
2022-11-14T07:34:23.044Z,12
2022-11-14T07:35:23.060Z,12
2022-11-14T07:36:23.129Z,12
2022-11-14T07:37:23.100Z,11
2022-11-14T07:38:23.050Z,12
2022-11-14T07:39:23.068Z,13
2022-11-14T07:40:23.069Z,12
2022-11-14T07:41:23.097Z,12
2022-11-14T07:42:23.063Z,13
2022-11-14T07:43:23.066Z,12
2022-11-14T07:44:23.100Z,12
2022-11-14T07:45:23.191Z,11
2022-11-14T07:46:23.070Z,13
2022-11-14T07:47:23.072Z,12
2022-11-14T07:48:23.057Z,12
2022-11-14T07:49:23.062Z,12
2022-11-14T07:50:23.086Z,12
2022-11-14T07:51:23.088Z,13
2022-11-14T07:52:23.113Z,13
2022-11-14T07:53:23.101Z,13
2022-11-14T07:54:23.076Z,13
2022-11-14T07:55:23.086Z,13
2022-11-14T07:56:23.077Z,13
2022-11-14T07:57:23.072Z,14
2022-11-14T07:58:23.037Z,13
2022-11-14T07:59:23.066Z,13
2022-11-14T08:00:23.103Z,14
2022-11-14T08:01:23.184Z,13
2022-11-14T08:02:23.034Z,13
2022-11-14T08:03:23.078Z,13
2022-11-14T08:04:23.066Z,14
2022-11-14T08:05:23.082Z,13
2022-11-14T08:06:23.064Z,14
2022-11-14T08:07:23.113Z,14
2022-11-14T08:08:23.115Z,14
2022-11-14T08:09:23.064Z,15
2022-11-14T08:10:23.066Z,15
2022-11-14T08:11:34.942Z,15
2022-11-14T08:12:23.090Z,14
2022-11-14T08:13:32.112Z,15
2022-11-14T08:14:23.035Z,14
2022-11-14T08:15:23.114Z,14
2022-11-14T08:16:23.113Z,14
2022-11-14T08:17:23.053Z,15
2022-11-14T08:18:23.072Z,16
2022-11-14T08:19:23.071Z,14
2022-11-14T08:20:23.043Z,15
2022-11-14T08:21:23.082Z,15
2022-11-14T08:22:23.062Z,15
2022-11-14T08:23:23.133Z,15
2022-11-14T08:24:23.099Z,15
2022-11-14T08:25:23.064Z,15
2022-11-14T08:26:23.065Z,15
2022-11-14T08:27:23.060Z,15
2022-11-14T08:28:23.071Z,15
2022-11-14T08:29:23.059Z,16
2022-11-14T08:30:23.081Z,15
2022-11-14T08:31:23.146Z,14
2022-11-14T08:32:23.083Z,14
2022-11-14T08:33:23.077Z,15
2022-11-14T08:34:23.042Z,15
2022-11-14T08:35:23.081Z,15
2022-11-14T08:36:23.075Z,14
2022-11-14T08:37:23.120Z,14
2022-11-14T08:38:23.060Z,14
2022-11-14T08:39:23.164Z,15
2022-11-14T08:40:23.077Z,14
2022-11-14T08:41:23.095Z,15
2022-11-14T08:42:23.039Z,15
2022-11-14T08:43:23.103Z,15
2022-11-14T08:44:23.076Z,14
2022-11-14T08:45:23.054Z,15
2022-11-14T08:46:23.059Z,15
2022-11-14T08:47:23.117Z,15
2022-11-14T08:48:23.114Z,15
2022-11-14T08:49:23.075Z,15
2022-11-14T08:50:23.076Z,14
2022-11-14T08:51:23.088Z,14
2022-11-14T08:52:23.059Z,14
2022-11-14T08:53:23.065Z,14
2022-11-14T08:54:23.034Z,14
2022-11-14T08:55:23.097Z,15
2022-11-14T08:56:23.072Z,14
2022-11-14T08:57:23.072Z,14
2022-11-14T08:58:23.044Z,15
2022-11-14T08:59:23.141Z,15
2022-11-14T09:00:23.073Z,15
2022-11-14T09:01:23.124Z,14
2022-11-14T09:02:23.085Z,15
2022-11-14T09:03:23.184Z,15
2022-11-14T09:04:23.124Z,14
2022-11-14T09:05:23.059Z,15
2022-11-14T09:06:23.075Z,14
2022-11-14T09:07:23.146Z,15
2022-11-14T09:08:23.046Z,15
2022-11-14T09:09:23.063Z,15
2022-11-14T09:10:23.208Z,15
2022-11-14T09:11:23.124Z,15
2022-11-14T09:12:23.046Z,15
2022-11-14T09:13:23.107Z,15
2022-11-14T09:14:23.067Z,17
2022-11-14T09:15:23.169Z,15
2022-11-14T09:16:23.079Z,16
2022-11-14T09:17:23.064Z,15
2022-11-14T09:18:23.112Z,15
2022-11-14T09:19:23.104Z,15
2022-11-14T09:20:25.853Z,15
2022-11-14T09:21:23.085Z,15
2022-11-14T09:22:23.036Z,15
2022-11-14T09:23:23.055Z,15
2022-11-14T09:24:23.039Z,15
2022-11-14T09:25:23.066Z,15
2022-11-14T09:26:23.145Z,15
2022-11-14T09:27:23.109Z,15
2022-11-14T09:28:23.038Z,14
2022-11-14T09:29:23.081Z,15
2022-11-14T09:30:23.227Z,15
2022-11-14T09:31:23.078Z,14
2022-11-14T09:32:23.067Z,15
2022-11-14T09:33:23.099Z,14
2022-11-14T09:34:23.088Z,14
2022-11-14T09:35:23.097Z,15
2022-11-14T09:36:23.072Z,14
2022-11-14T09:37:23.066Z,14
2022-11-14T09:38:23.058Z,15
2022-11-14T09:39:23.065Z,14
2022-11-14T09:40:23.071Z,14
2022-11-14T09:41:23.078Z,14
2022-11-14T09:42:23.101Z,13
2022-11-14T09:43:23.061Z,14
2022-11-14T09:44:23.038Z,14
2022-11-14T09:45:23.092Z,13
2022-11-14T09:46:23.103Z,13
2022-11-14T09:47:23.060Z,14
2022-11-14T09:48:23.125Z,14
2022-11-14T09:49:23.180Z,15
2022-11-14T09:50:25.918Z,14
2022-11-14T09:51:23.075Z,14
2022-11-14T09:52:23.053Z,14
2022-11-14T09:53:23.059Z,13
2022-11-14T09:54:23.064Z,14
2022-11-14T09:55:23.056Z,14
2022-11-14T09:56:23.103Z,14
2022-11-14T09:57:23.078Z,14
2022-11-14T09:58:23.111Z,13
2022-11-14T09:59:23.071Z,14
2022-11-14T10:00:23.060Z,13
2022-11-14T10:01:23.149Z,14
2022-11-14T10:02:23.127Z,14
2022-11-14T10:03:23.085Z,13
2022-11-14T10:04:23.045Z,13
2022-11-14T10:05:23.116Z,13
2022-11-14T10:06:23.092Z,15
2022-11-14T10:07:23.096Z,14
2022-11-14T10:08:23.032Z,13
2022-11-14T10:09:28.865Z,13
2022-11-14T10:10:23.060Z,14
2022-11-14T10:11:23.124Z,14
2022-11-14T10:12:23.029Z,14
2022-11-14T10:13:23.105Z,14
2022-11-14T10:14:23.094Z,15
2022-11-14T10:15:23.081Z,13
2022-11-14T10:16:23.078Z,13
2022-11-14T10:17:23.066Z,14
2022-11-14T10:18:23.039Z,12
2022-11-14T10:19:23.077Z,14
2022-11-14T10:20:23.039Z,14
2022-11-14T10:21:23.124Z,13
2022-11-14T10:22:23.042Z,13
2022-11-14T10:23:23.063Z,13
2022-11-14T10:24:23.044Z,14
2022-11-14T10:25:23.099Z,13
2022-11-14T10:26:23.073Z,13
2022-11-14T10:27:23.060Z,13
2022-11-14T10:28:23.111Z,13
2022-11-14T10:29:23.117Z,12
2022-11-14T10:30:23.034Z,14
2022-11-14T10:31:23.086Z,13
2022-11-14T10:32:23.035Z,13
2022-11-14T10:33:23.080Z,13
2022-11-14T10:34:23.059Z,13
2022-11-14T10:35:23.067Z,12
2022-11-14T10:36:23.181Z,14
2022-11-14T10:37:23.102Z,13
2022-11-14T10:38:23.045Z,14
2022-11-14T10:39:23.074Z,13
2022-11-14T10:40:23.047Z,13
2022-11-14T10:41:49.842Z,13
2022-11-14T10:42:23.068Z,13
2022-11-14T10:43:23.066Z,15
2022-11-14T10:44:23.115Z,13
2022-11-14T10:45:23.122Z,13
2022-11-14T10:46:23.083Z,14
2022-11-14T10:47:23.126Z,13
2022-11-14T10:48:23.059Z,14
2022-11-14T10:49:23.052Z,14
2022-11-14T10:50:23.096Z,14
2022-11-14T10:51:23.093Z,15
2022-11-14T10:52:23.080Z,16
2022-11-14T10:53:23.100Z,15
2022-11-14T10:54:23.092Z,15
2022-11-14T10:55:43.504Z,15
2022-11-14T10:56:23.130Z,14
2022-11-14T10:57:23.064Z,15
2022-11-14T10:58:23.099Z,17
2022-11-14T10:59:23.075Z,16
2022-11-14T11:00:23.165Z,15
2022-11-14T11:01:23.251Z,15
2022-11-14T11:02:23.072Z,15
2022-11-14T11:03:23.097Z,15
2022-11-14T11:04:23.082Z,15
2022-11-14T11:05:23.068Z,15
2022-11-14T11:06:23.127Z,16
2022-11-14T11:07:23.153Z,15
2022-11-14T11:08:50.750Z,16
2022-11-14T11:09:23.181Z,15
2022-11-14T11:10:23.062Z,16
2022-11-14T11:11:23.071Z,15
2022-11-14T11:12:23.113Z,16
2022-11-14T11:13:23.090Z,15
2022-11-14T11:14:23.052Z,15
2022-11-14T11:15:23.067Z,16
2022-11-14T11:16:23.099Z,16
2022-11-14T11:17:23.052Z,15
2022-11-14T11:18:23.095Z,16
2022-11-14T11:19:23.076Z,13
2022-11-14T11:20:23.082Z,15
2022-11-14T11:21:23.110Z,15
2022-11-14T11:22:23.042Z,16
2022-11-14T11:23:23.139Z,16
2022-11-14T11:24:23.105Z,15
2022-11-14T11:25:23.094Z,15
2022-11-14T11:26:23.074Z,16
2022-11-14T11:27:23.059Z,16
2022-11-14T11:28:23.038Z,16
2022-11-14T11:29:23.068Z,16
2022-11-14T11:30:23.065Z,14
2022-11-14T11:31:23.145Z,16
2022-11-14T11:32:23.119Z,14
2022-11-14T11:33:23.098Z,14
2022-11-14T11:34:23.109Z,15
2022-11-14T11:35:23.064Z,14
2022-11-14T11:36:23.089Z,15
2022-11-14T11:37:23.119Z,15
2022-11-14T11:38:23.088Z,15
2022-11-14T11:39:23.117Z,15
2022-11-14T11:40:23.086Z,14
2022-11-14T11:42:02.234Z,14
2022-11-14T11:42:23.176Z,14
2022-11-14T11:43:39.893Z,14
2022-11-14T11:44:23.036Z,15
2022-11-14T11:45:23.104Z,14
2022-11-14T11:46:23.064Z,14
2022-11-14T11:47:23.126Z,14
2022-11-14T11:48:23.121Z,14
2022-11-14T11:49:23.093Z,13
2022-11-14T11:50:23.041Z,15
2022-11-14T11:51:23.088Z,14
2022-11-14T11:52:23.060Z,13
2022-11-14T11:53:23.052Z,15
2022-11-14T11:54:23.062Z,14
2022-11-14T11:55:23.145Z,14
2022-11-14T11:56:23.112Z,13
2022-11-14T11:57:23.077Z,14
2022-11-14T11:58:23.071Z,15
2022-11-14T11:59:23.089Z,15
2022-11-14T12:00:23.038Z,14
2022-11-14T12:01:23.090Z,14
2022-11-14T12:02:23.211Z,14
2022-11-14T12:03:23.263Z,14
2022-11-14T12:04:23.153Z,14
2022-11-14T12:05:23.078Z,14
2022-11-14T12:06:23.084Z,15
2022-11-14T12:07:23.122Z,14
2022-11-14T12:08:23.038Z,14
2022-11-14T12:09:24.803Z,15
2022-11-14T12:10:23.042Z,14
2022-11-14T12:11:23.137Z,15
2022-11-14T12:12:23.066Z,14
2022-11-14T12:13:23.069Z,14
2022-11-14T12:14:23.051Z,14
2022-11-14T12:15:23.059Z,13
2022-11-14T12:16:23.067Z,14
2022-11-14T12:17:23.084Z,14
2022-11-14T12:18:23.083Z,15
2022-11-14T12:19:23.153Z,15
2022-11-14T12:20:23.077Z,15
2022-11-14T12:21:23.174Z,15
2022-11-14T12:22:23.202Z,15
2022-11-14T12:23:23.052Z,15
2022-11-14T12:24:23.052Z,15
2022-11-14T12:25:23.057Z,14
2022-11-14T12:26:23.153Z,15
2022-11-14T12:27:23.259Z,15
2022-11-14T12:28:23.087Z,15
2022-11-14T12:29:25.379Z,15
2022-11-14T12:30:23.330Z,16
2022-11-14T12:31:23.533Z,15
2022-11-14T12:32:23.423Z,15
2022-11-14T12:33:23.344Z,16
2022-11-14T12:34:23.242Z,14
2022-11-14T12:35:23.558Z,15
2022-11-14T12:36:23.108Z,14
2022-11-14T12:37:23.105Z,15
2022-11-14T12:38:23.040Z,16
2022-11-14T12:39:23.068Z,15
2022-11-14T12:40:23.145Z,16
2022-11-14T12:41:23.091Z,15
2022-11-14T12:42:23.089Z,15
2022-11-14T12:43:23.106Z,15
2022-11-14T12:44:23.076Z,16
2022-11-14T12:45:23.053Z,16
2022-11-14T12:46:23.074Z,15
2022-11-14T12:47:23.056Z,15
2022-11-14T12:48:23.099Z,15
2022-11-14T12:49:23.059Z,15
2022-11-14T12:50:23.086Z,15
2022-11-14T12:51:23.168Z,15
2022-11-14T12:52:23.044Z,15
2022-11-14T12:53:23.072Z,16
2022-11-14T12:54:23.120Z,16
2022-11-14T12:55:23.090Z,15
2022-11-14T12:56:23.057Z,15
2022-11-14T12:57:23.116Z,15
2022-11-14T12:58:23.108Z,16
2022-11-14T12:59:23.081Z,16
2022-11-14T13:00:23.061Z,15
2022-11-14T13:01:23.140Z,15
2022-11-14T13:02:23.063Z,17
2022-11-14T13:03:23.142Z,16
2022-11-14T13:04:23.081Z,15
2022-11-14T13:05:23.134Z,15
2022-11-14T13:06:23.108Z,14
2022-11-14T13:07:23.101Z,14
2022-11-14T13:08:23.103Z,15
2022-11-14T13:09:23.075Z,14
2022-11-14T13:10:23.034Z,16
2022-11-14T13:11:23.093Z,16
2022-11-14T13:12:23.067Z,15
2022-11-14T13:13:23.099Z,15
2022-11-14T13:14:23.095Z,14
2022-11-14T13:15:23.103Z,15
2022-11-14T13:16:23.085Z,16
2022-11-14T13:17:23.067Z,15
2022-11-14T13:18:23.088Z,15
2022-11-14T13:19:23.121Z,14
2022-11-14T13:20:23.039Z,14
2022-11-14T13:21:23.141Z,15
2022-11-14T13:22:23.120Z,15
2022-11-14T13:23:23.069Z,16
2022-11-14T13:24:23.070Z,15
2022-11-14T13:25:23.051Z,16
2022-11-14T13:26:23.087Z,15
2022-11-14T13:27:39.211Z,16
2022-11-14T13:28:24.954Z,15
2022-11-14T13:29:23.124Z,16
2022-11-14T13:30:23.035Z,15
2022-11-14T13:31:23.065Z,15
2022-11-14T13:32:23.039Z,15
2022-11-14T13:33:23.076Z,16
2022-11-14T13:34:23.022Z,15
2022-11-14T13:35:23.097Z,15
2022-11-14T13:36:23.090Z,16
2022-11-14T13:37:23.101Z,16
2022-11-14T13:38:23.086Z,16
2022-11-14T13:39:23.056Z,16
2022-11-14T13:40:23.076Z,15
2022-11-14T13:41:24.547Z,15
2022-11-14T13:42:23.063Z,15
2022-11-14T13:43:23.066Z,15
2022-11-14T13:44:23.129Z,16
2022-11-14T13:45:23.100Z,15
2022-11-14T13:46:23.077Z,16
2022-11-14T13:47:23.088Z,16
2022-11-14T13:48:23.086Z,15
2022-11-14T13:49:23.054Z,15
2022-11-14T13:50:23.038Z,15
2022-11-14T13:51:42.140Z,15
2022-11-14T13:52:23.089Z,15
2022-11-14T13:53:23.146Z,14
2022-11-14T13:54:23.075Z,16
2022-11-14T13:55:23.061Z,15
2022-11-14T13:56:23.052Z,17
2022-11-14T13:57:23.077Z,18
2022-11-14T13:58:23.074Z,32
2022-11-14T13:59:23.090Z,25
2022-11-14T14:00:23.098Z,15
2022-11-14T14:01:23.175Z,17
2022-11-14T14:02:23.043Z,15
2022-11-14T14:03:23.203Z,15
2022-11-14T14:04:23.056Z,15
2022-11-14T14:05:23.056Z,15
2022-11-14T14:06:23.147Z,15
2022-11-14T14:07:23.168Z,15
2022-11-14T14:08:23.096Z,14
2022-11-14T14:09:23.103Z,15
2022-11-14T14:10:23.057Z,14
2022-11-14T14:11:23.081Z,13
2022-11-14T14:12:23.074Z,13
2022-11-14T14:13:23.042Z,13
2022-11-14T14:14:23.076Z,14
2022-11-14T14:15:23.109Z,14
2022-11-14T14:16:23.103Z,14
2022-11-14T14:17:23.136Z,14
2022-11-14T14:18:23.079Z,14
2022-11-14T14:19:25.667Z,15
2022-11-14T14:20:23.043Z,14
2022-11-14T14:21:23.091Z,15
2022-11-14T14:22:23.065Z,19
2022-11-14T14:23:23.068Z,15
2022-11-14T14:24:23.144Z,19
2022-11-14T14:25:23.124Z,16
2022-11-14T14:26:23.095Z,15
2022-11-14T14:27:23.100Z,16
2022-11-14T14:28:23.055Z,14
2022-11-14T14:29:23.082Z,14
2022-11-14T14:30:23.044Z,14